Edgar Albert Guest

(20 August 1881 - 5 August 1959 / Birmingham / England)

Stats

» Click to list general statistics » OR, select a date :

General Statistics

Visitors of the poet

Number of visitors of the poet’s mainpage in PoemHunter.Com

Attention : Numbers in this table does not indicate the total hits of poems of the poet, but indicates the hits of the poet’s main page.

Date Hits
02/11/2016 Thursday 987
49%
02/10/2016 Wednesday 998
50%
02/09/2016 Tuesday 910
45%
02/08/2016 Monday 1549
78%
02/07/2016 Sunday 1981
100%
02/06/2016 Saturday 1261
63%
02/05/2016 Friday 1039
52%
02/04/2016 Thursday 542
27%
02/03/2016 Wednesday 736
37%
02/02/2016 Tuesday 1703
85%
02/01/2016 Monday 591
29%
01/31/2016 Sunday 637
32%
01/30/2016 Saturday 498
25%
01/29/2016 Friday 700
35%
01/28/2016 Thursday 592
29%
01/27/2016 Wednesday 670
33%
01/26/2016 Tuesday 849
42%
01/25/2016 Monday 612
30%
01/24/2016 Sunday 625
31%
01/23/2016 Saturday 488
24%

Reader rating & num.of MyPoemList’s

Click the captions of columns to change the order.

# Poem Title Submit Date Reader Rating Num.of MyPoemList’s
Rating Num.R.
1 A Friend 07/11/2014 10.0 1 0
2 Sermons We See 07/11/2014 10.0 1 0
3 The Soldier On Crutches 07/11/2014 10.0 1 2
4 When Day Is Done 07/11/2014 10.0 1 0
5 What We Need 07/11/2014 10.0 1 1
6 Courage, Courage, Courage! 07/11/2014 10.0 1 0
7 Life's Canvas 07/11/2014 10.0 1 1
8 The Gold Star 07/12/2014 10.0 1 0
9 Myself 07/12/2014 10.0 1 1
10 Home 07/12/2014 10.0 1 0
11 Improvement 07/12/2014 10.0 1 1
12 Success And Failure 07/12/2014 10.0 1 0
13 The Living Beauties 07/12/2014 10.0 1 0
14 The Obligation Of Friendship 07/14/2014 10.0 1 0
15 Gratitude 07/14/2014 10.0 1 0
16 Money 08/20/2014 10.0 1 0
17 The Tragedy Of Age 08/14/2014 10.0 1 0
18 My Religion 08/14/2014 10.0 1 0
19 Only A Dad 03/03/2015 9.0 1 0
20 A Friend's Greeting 08/20/2014 9.0 1 0
21 A Baby's Love 08/14/2014 9.0 1 1
22 A Boy At Christmas 08/14/2014 9.0 1 1
23 Men And Dreamers 08/26/2014 9.0 1 0
24 Midnight In The Pantry 07/12/2014 9.0 1 0
25 Mother 07/11/2014 9.0 1 0
26 A Boy And His Dad 07/11/2014 9.0 1 0
27 A Boy And His Dog 07/11/2014 9.0 1 0
28 A Boost For Modern Methods 07/12/2014 8.0 1 0
29 Memory 07/12/2014 8.0 1 0
30 As It Goes 07/12/2014 8.0 1 1
31 The Unknown Friends 08/14/2014 8.0 1 0
32 A Choice 08/14/2014 8.0 1 0
33 A Battle Prayer 08/14/2014 8.0 1 0
34 A Breach Of Friendship 08/14/2014 8.0 1 0
35 Selfish 07/12/2014 7.0 1 0
36 A Bear Story 07/14/2014 7.0 1 0
37 A Child Of Mine 07/11/2014 7.0 1 0
38 At Breakfast Time 07/11/2014 7.0 1 1
39 As We Prayed 07/11/2014 6.0 1 2
40 A Good Soldier 08/15/2014 6.0 1 0
41 A Christmas Carol 07/11/2014 10.0 2 0
42 A Family Row 08/14/2014 5.0 1 0
43 When Father Shook The Stove 03/29/2010 9.0 2 1
44 Yesterday 01/01/2004 10.0 3 60
45 A Boy's Tribute 07/12/2014 6.5 2 1
46 At Christmas 07/15/2014 10.0 4 2
47 The Little Orphan 01/01/2004 9.8 6 45
48 As It Looks To The Boy 08/20/2014 1.0 1 1
49 Reflection 03/29/2010 6.3 12 1
50 The Alarm 03/29/2010 5.1 11 2
51 Drafted 03/29/2010 5.1 11 0
52 Grace At Evening 03/29/2010 5.1 11 2
53 Selfishness 03/29/2010 5.5 12 2
54 Compensation 03/29/2010 5.4 12 1
55 Follow A Famous Father 03/29/2010 5.8 13 3
56 The Kick Under The Table 03/29/2010 5.1 12 4
57 Show Me! 03/29/2010 5.5 13 6
58 The Bachelor's Soliloquy 01/01/2004 6.5 16 39
59 Move We Adjourn 03/29/2010 5.2 13 1
60 Ideals 03/29/2010 5.5 14 2
61 A Christmas Greeting 03/29/2010 6.1 16 1
62 Father 01/01/2004 6.0 16 60
63 Thanksgiving 01/01/2004 6.6 18 45
64 Peace 03/29/2010 4.9 14 2
65 I See You'Ve Travelled Some 03/29/2010 5.1 15 1
66 A Father's Prayer 03/29/2010 5.8 17 6
67 If You Would Please Me 03/29/2010 4.9 16 2
68 Life's Slacker 03/29/2010 4.9 16 3
69 On Quitting 01/01/2004 6.3 21 73
70 Hard Luck 01/01/2004 6.5 22 57
71 A Toast To The Men 01/01/2004 5.2 18 49
72 He Who Serves 03/29/2010 5.3 19 4
73 See It Through 01/01/2004 8.0 50 156
74 The Lamb Skin 03/29/2010 -- 0 0
75 The Proof Of Worth 03/29/2010 -- 0 2
76 The Temple - What Makes It Of Worth 03/29/2010 -- 0 0
77 The Wrist Watch Man 03/29/2010 -- 0 1
78 Things Work Out 03/29/2010 -- 0 8
79 It Couldn'T Be Done 01/08/2014 -- 0 3
80 Equipment 07/11/2014 -- 0 1
81 The Little Home 07/11/2014 -- 0 0
82 You 07/11/2014 -- 0 0
83 Prayer For The Home 07/11/2014 -- 0 0
84 Good Books 07/11/2014 -- 0 0
85 A New Baby In The House 07/11/2014 -- 0 0
86 No Better Land Than This 07/11/2014 -- 0 0
87 No Children! 07/11/2014 -- 0 0
88 Home And The Office 07/11/2014 -- 0 0
89 When Sorrow Comes 07/11/2014 -- 0 0
90 The Future 07/11/2014 -- 0 0
91 Influence 07/11/2014 -- 0 0
92 A New Year's Plea 07/11/2014 -- 0 0
93 Silent 07/11/2014 -- 0 1
94 He's Taken Out His Papers 07/11/2014 -- 0 0
95 On A Certain Religious Argument 07/11/2014 -- 0 0
96 No Room For Hate 07/11/2014 -- 0 0
97 The Scoutmaster 07/11/2014 -- 0 0
98 The Cookie Jar 07/11/2014 -- 0 0
99 If This Were All 07/11/2014 -- 0 0
100 The First Easter 07/11/2014 -- 0 0
101 A Creed 07/11/2014 -- 0 0
102 Checking The Day 07/11/2014 -- 0 0
103 The Path To Home 07/11/2014 -- 0 0
104 The Common Joys 07/11/2014 -- 0 1
105 What I Call Living 07/11/2014 -- 0 0
106 Forgotten Boyhood 07/11/2014 -- 0 0
107 Back Home 07/11/2014 -- 0 0
108 The Good Little Boy 07/11/2014 -- 0 0
109 The Cheat 07/11/2014 -- 0 0
110 The Dead Return 07/11/2014 -- 0 0
111 The Lay For The Troubled Golfer 07/11/2014 -- 0 0
112 Our House 07/11/2014 -- 0 0
113 Picture Books 07/11/2014 -- 0 0
114 Lines For A Flag Raising Ceremony 07/11/2014 -- 0 0
115 Lord, Make Me A Regular Man 07/11/2014 -- 0 0
116 Boy O' Mine 07/11/2014 -- 0 0
117 Folks 07/11/2014 -- 0 0
118 Hard Luck 07/12/2014 -- 0 0
119 On Quitting 07/12/2014 -- 0 1
120 Childless 07/12/2014 -- 0 0
121 The Crucible Of Life 07/12/2014 -- 0 0
122 Laughter 07/12/2014 -- 0 0
123 Signs 07/12/2014 -- 0 0
124 Constant Beauty 07/12/2014 -- 0 0
125 Departed Friends 07/12/2014 -- 0 0
126 A Fine Sight 07/12/2014 -- 0 0
127 Grown Up 07/12/2014 -- 0 0
128 Mothers' Excuses 07/12/2014 -- 0 0
129 Unimportant Differences 07/12/2014 -- 0 0
130 The Fishing Outfit 07/12/2014 -- 0 0
131 When Father Played Baseball 07/12/2014 -- 0 0
132 Since Jessie Died 07/12/2014 -- 0 0
133 To The Humble 07/12/2014 -- 0 0
134 The Summer Children 07/12/2014 -- 0 0
135 Baby Feet 07/11/2014 -- 0 0
136 When A Little Baby Dies 07/11/2014 -- 0 0
137 God Made This Day For Me 07/11/2014 -- 0 0
138 Sausage 07/11/2014 -- 0 0
139 Old-Fashioned Letters 07/11/2014 -- 0 0
140 The Frosting Dish 07/11/2014 -- 0 0
141 Prophecy 07/12/2014 -- 0 0
142 When The Drums Shall Cease To Beat 07/12/2014 -- 0 0
143 The Lonely Garden 07/12/2014 -- 0 0
144 Battle Of Belleau Wood 07/12/2014 -- 0 0
145 A Prayer, 1918 07/12/2014 -- 0 0
146 Christmas, 1918 07/12/2014 -- 0 0
147 It Couldn'T Be Done 07/12/2014 -- 0 0
148 Being Brave At Night 07/11/2014 -- 0 0
149 A Friend [2] 07/11/2014 -- 0 0
150 The Fifty-Per-Cent Man 07/11/2014 -- 0 0
151 The Best Land 07/11/2014 -- 0 0
152 Making The House A Home 07/11/2014 -- 0 0
153 I Mustn'T Forget 07/11/2014 -- 0 0
154 Faith 07/11/2014 -- 0 0
155 The Need 07/11/2014 -- 0 0
156 The Brethren 07/11/2014 -- 0 0
157 Just Like A Man 07/11/2014 -- 0 0
158 Father 07/11/2014 -- 0 0
159 The Joys We Miss 07/11/2014 -- 0 0
160 The Homely Man 07/11/2014 -- 0 0
161 The Inn-Keeper Makes Excuses 07/11/2014 -- 0 0
162 All That Matters 07/11/2014 -- 0 0
163 The Tears Expressive 07/11/2014 -- 0 0
164 The Family Doctor 07/11/2014 -- 0 0
165 Playing The Game 07/11/2014 -- 0 0
166 Bread And Gravy 07/12/2014 -- 0 0
167 Motherhood 07/12/2014 -- 0 0
168 Just Half Of That, Please 07/12/2014 -- 0 0
169 Forgetful Pa 07/12/2014 -- 0 0
170 Living 07/12/2014 -- 0 0
171 When The Young Are Grown 07/12/2014 -- 0 0
172 Mother And The Baby 07/12/2014 -- 0 0
173 Success 07/12/2014 -- 0 0
174 Ten Fingered Mice 07/12/2014 -- 0 0
175 Youth 07/12/2014 -- 0 0
176 Clinching The Bolt 07/12/2014 -- 0 0
177 The Lonely Old Fellow 07/12/2014 -- 0 0
178 Playing For Keeps 07/12/2014 -- 0 0
179 A Warm House And A Ruddy Fire 07/12/2014 -- 0 0
180 The Boy's Ideal 07/12/2014 -- 0 0
181 Unchangeable Mother 07/12/2014 -- 0 0
182 The Harder Part 07/12/2014 -- 0 0
183 Accomplished Care 07/12/2014 -- 0 0
184 The Newspaper Man 07/12/2014 -- 0 0
185 The Common Touch 07/12/2014 -- 0 0
186 Little Feet 07/12/2014 -- 0 0
187 To A Young Man 07/12/2014 -- 0 0
188 Denial 07/12/2014 -- 0 0
189 The Call 07/12/2014 -- 0 0
190 Service 07/12/2014 -- 0 0
191 Example 07/12/2014 -- 0 0
192 The Kindly Neighbor 07/12/2014 -- 0 0
193 Somebody Else 07/12/2014 -- 0 0
194 The Grate Fire 07/12/2014 -- 0 0
195 The Workman's Dream 07/12/2014 -- 0 0
196 The One In Ten 07/12/2014 -- 0 0
197 Winding The Clock 07/12/2014 -- 0 0
198 Until She Died 07/12/2014 -- 0 0
199 Effort 07/12/2014 -- 0 0
200 The Things They Musn'T Touch 07/12/2014 -- 0 0
201 Bulb Planting Time 07/12/2014 -- 0 0
202 His Other Chance 07/12/2014 -- 0 0
203 Marjorie 07/12/2014 -- 0 0
204 Fatherhood 07/12/2014 -- 0 0
205 Life 07/12/2014 -- 0 0
206 The Things They Mustn'T Touch 07/12/2014 -- 0 0
207 The Old, Old Story 07/12/2014 -- 0 0
208 Just Folks 07/12/2014 -- 0 0
209 Reward 07/12/2014 -- 0 0
210 The Scoffer 07/12/2014 -- 0 0
211 Daddies 07/12/2014 -- 0 0
212 Vacation Time 07/12/2014 -- 0 0
213 The Weaver 07/12/2014 -- 0 0
214 Show The Flag 07/12/2014 -- 0 0
215 Another Mouth To Feed 07/12/2014 -- 0 0
216 Friends 07/12/2014 -- 0 0
217 Toys 07/12/2014 -- 0 0
218 The Truth About Envy 07/12/2014 -- 0 0
219 The Job 07/12/2014 -- 0 0
220 The Lure That Failed 07/12/2014 -- 0 0
221 Curly Locks 07/12/2014 -- 0 0
222 Home And The Baby 07/12/2014 -- 0 0
223 The Old-Time Family 07/12/2014 -- 0 0
224 Loafing 07/12/2014 -- 0 0
225 The Roads Of Happiness 07/12/2014 -- 0 0
226 Hollyhocks 07/12/2014 -- 0 0
227 Songs Of Rejoicing 07/12/2014 -- 0 0
228 The Pup 07/12/2014 -- 0 0
229 Thec Lanes Of Memory 07/12/2014 -- 0 0
230 Memorial Day 07/12/2014 -- 0 0
231 Heroes 07/12/2014 -- 0 0
232 Out Fishin' 07/12/2014 -- 0 0
233 July The Fourth 07/12/2014 -- 0 0
234 The Silver Stripes 07/12/2014 -- 0 1
235 Hate 07/12/2014 -- 0 0
236 A Plea 07/12/2014 -- 0 0
237 The Big Deeds 07/12/2014 -- 0 0
238 When Mother Cooked With Wood 07/12/2014 -- 0 0
239 Sacrifice 07/12/2014 -- 0 0
240 Yesterday 07/12/2014 -- 0 0
241 The Important Thing 07/12/2014 -- 0 0
242 The Little Church 07/12/2014 -- 0 0
243 The Little Hurts 07/12/2014 -- 0 0
244 The Fisherman 07/12/2014 -- 0 0
245 There Are No Gods! 07/12/2014 -- 0 0
246 The Love Of The Game 07/12/2014 -- 0 0
247 The Handy Man 07/12/2014 -- 0 0
248 June 07/12/2014 -- 0 0
249 Sue's Got A Baby 07/12/2014 -- 0 0
250 Real Swimming 07/12/2014 -- 0 0
251 The Open Fire 07/12/2014 -- 0 0
252 The Other Fellow 07/12/2014 -- 0 0
253 Bud 07/12/2014 -- 0 0
254 We'Ve Had A Letter From The Boy 07/12/2014 -- 0 0
255 Warriors 07/12/2014 -- 0 0
256 The Mother Faith 07/12/2014 -- 0 0
257 Rebellion 07/12/2014 -- 0 0
258 About Boys 07/12/2014 -- 0 0
259 Roses And Sunshine 07/12/2014 -- 0 0
260 Baby's Got A Tooth 07/12/2014 -- 0 0
261 See It Through 07/12/2014 -- 0 0
262 My Creed 07/12/2014 -- 0 1
263 As Fall The Leaves 07/12/2014 -- 0 0
264 Tomorrow 07/12/2014 -- 0 0
265 Can'T 07/12/2014 -- 0 0
266 It's September 07/12/2014 -- 0 0
267 The Few 07/12/2014 -- 0 0
268 Manhood's Greeting 07/12/2014 -- 0 0
269 The Day Of Days 07/12/2014 -- 0 0
270 Fishing Nooks 07/12/2014 -- 0 0
271 At Pelletier's 07/12/2014 -- 0 0
272 The March Of Mortality 07/12/2014 -- 0 0
273 The World Is Against Me 07/12/2014 -- 0 0
274 The Man To Be 07/12/2014 -- 0 0
275 When Nellie's On The Job 07/12/2014 -- 0 0
276 A Father's Thoughts 07/12/2014 -- 0 0
277 The Home Builders 07/12/2014 -- 0 0
278 Send Her A Valentine 07/12/2014 -- 0 0
279 Growing Down 07/12/2014 -- 0 0
280 The Price Of Riches 07/12/2014 -- 0 0
281 My Books And I 07/12/2014 -- 0 0
282 The Auto 07/12/2014 -- 0 0
283 When Mother Sleeps 07/12/2014 -- 0 0
284 Questions 07/12/2014 -- 0 0
285 The Front Seat 07/12/2014 -- 0 0
286 The New Days 07/12/2014 -- 0 0
287 October 07/12/2014 -- 0 0
288 Revenge 07/14/2014 -- 0 0
289 Father And Son 07/14/2014 -- 0 0
290 Eternal Friendship 07/14/2014 -- 0 0
291 Purpose 07/14/2014 -- 0 0
292 Duty 07/14/2014 -- 0 0
293 Hard Work 07/14/2014 -- 0 0
294 Division 07/14/2014 -- 0 0
295 Understanding 07/14/2014 -- 0 0
296 The Joy Of A Dog 07/14/2014 -- 0 0
297 Expectation 07/14/2014 -- 0 0
298 The Price Of Joy 07/14/2014 -- 0 0
299 Roses 07/14/2014 -- 0 0
300 Real Singing 07/14/2014 -- 0 0
301 No Place To Go 07/14/2014 -- 0 0
302 Stuck 07/14/2014 -- 0 0
303 The Happy Slow Thinker 07/14/2014 -- 0 0
304 When Pa Comes Home 07/14/2014 -- 0 0
305 The Ready Artists 07/14/2014 -- 0 0
306 When Pa Counts 07/14/2014 -- 0 0
307 The Neighborly Man 07/14/2014 -- 0 0
308 The Happiest Days 07/14/2014 -- 0 0
309 The Bumps And Bruises Doctor 07/14/2014 -- 0 0
310 Mother's Day 07/14/2014 -- 0 0
311 The Sulkers 07/14/2014 -- 0 0
312 The June Couple 07/14/2014 -- 0 0
313 The Fishing Cure 07/14/2014 -- 0 0
314 The Junk Box 07/14/2014 -- 0 0
315 Promotion 07/14/2014 -- 0 0
316 House-Hunting 07/15/2014 -- 0 0
317 Autumn At The Orchard 07/15/2014 -- 0 0
318 To The Lady In The Electric 07/15/2014 -- 0 0
319 Homesick 07/15/2014 -- 0 0
320 The Real Bait 07/15/2014 -- 0 0
321 Under The Skin Of Men 07/15/2014 -- 0 0
322 The States 07/15/2014 -- 0 0
323 Ma And Her Checkbook 07/15/2014 -- 0 0
324 Guessing Time 07/15/2014 -- 0 0
325 The Princess Pat's 07/15/2014 -- 0 0
326 A Toast To Happiness 07/15/2014 -- 0 0
327 Out Of Doors 07/15/2014 -- 0 0
328 The Broken Drum 07/15/2014 -- 0 0
329 The First Steps 07/15/2014 -- 0 0
330 Pa Did It! 07/15/2014 -- 0 0
331 A Patriotic Creed 07/15/2014 -- 0 0
332 Grandpa 07/15/2014 -- 0 0
333 The Sorry Hostess 07/15/2014 -- 0 0
334 The Little Old Man 07/15/2014 -- 0 0
335 The Real Successes 07/15/2014 -- 0 0
336 As It Is 07/15/2014 -- 0 1
337 The Mother's Question 07/15/2014 -- 0 0
338 The Beauty Places 07/15/2014 -- 0 0
339 My Land 07/15/2014 -- 0 0
340 Up To The Ceiling 07/15/2014 -- 0 0
341 On Being Broke 07/15/2014 -- 0 0
342 Treasures 07/12/2014 -- 0 0
343 Spring In The Trenches 07/12/2014 -- 0 0
344 Failures 07/12/2014 -- 0 0
345 Little Master Mischievous 07/12/2014 -- 0 0
346 Story Telling 07/12/2014 -- 0 0
347 When You Know A Fellow 07/12/2014 -- 0 0
348 My Paw Said So 07/12/2014 -- 0 0
349 The Dull Road 07/12/2014 -- 0 0
350 The Gentle Gardener 07/12/2014 -- 0 0
351 The Man Who Couldn'T Save 07/12/2014 -- 0 0
352 At Sugar Camp 07/12/2014 -- 0 0
353 Preparedness 07/12/2014 -- 0 0
354 Care-Free Youth 07/12/2014 -- 0 0
355 The Home-Town 07/12/2014 -- 0 0
356 Raisin Pie 07/12/2014 -- 0 0
357 The Finest Age 07/12/2014 -- 0 0
358 The Peaceful Warriors 07/14/2014 -- 0 0
359 It Isn'T Costly 07/14/2014 -- 0 0
360 The Epicure 07/14/2014 -- 0 0
361 The Rough Little Rascal 07/14/2014 -- 0 0
362 Exempt 07/14/2014 -- 0 0
363 The Boy Enlists 07/14/2014 -- 0 1
364 A Wish 07/12/2014 -- 0 0
365 The Perfect Dinner Table 07/12/2014 -- 0 0
366 What A Baby Costs 07/12/2014 -- 0 0
367 How Do You Tackle Your Work 07/12/2014 -- 0 0
368 Life's Tests 07/12/2014 -- 0 0
369 Ma And The Auto 07/12/2014 -- 0 0
370 Courage 07/12/2014 -- 0 0
371 True Nobility 07/12/2014 -- 0 1
372 Our Duty To Our Flag 07/12/2014 -- 0 0
373 A Patriotic Wish 07/12/2014 -- 0 0
374 The Path That Leads To Home 07/12/2014 -- 0 0
375 Old Friends 07/12/2014 -- 0 0
376 Canning Time 07/12/2014 -- 0 0
377 On Going Home For Christmas 07/12/2014 -- 0 0
378 At The Door 07/12/2014 -- 0 0
379 The Boy That Was 07/12/2014 -- 0 0
380 Rich 07/12/2014 -- 0 0
381 The Sorrow Tugs 07/12/2014 -- 0 0
382 Greatness 07/12/2014 -- 0 0
383 Laddies 07/12/2014 -- 0 0
384 Mother's Glasses 07/12/2014 -- 0 0
385 The Hunter 07/12/2014 -- 0 0
386 Hard Knocks 07/12/2014 -- 0 0
387 The Family's Homely Man 07/15/2014 -- 0 0
388 The Little Velvet Suit 07/15/2014 -- 0 0
389 The Little Army 07/15/2014 -- 0 0
390 The Boy Soldier 07/15/2014 -- 0 0
391 The Blue Flannel Shirt 07/15/2014 -- 0 0
392 The Mother On The Sidewalk 07/15/2014 -- 0 0
393 Bribed 07/15/2014 -- 0 0
394 The Flag On The Farm 07/15/2014 -- 0 0
395 If Only I Were Santa Claus 07/15/2014 -- 0 0
396 Lemon Pie 07/15/2014 -- 0 0
397 The Pathway Of The Living 07/15/2014 -- 0 0
398 A Toast To The Men 07/15/2014 -- 0 0
399 The Chaplain 07/15/2014 -- 0 0
400 The Kick Under The Table 07/15/2014 -- 0 0
401 Father 07/15/2014 -- 0 0
402 A Father's Prayer 07/15/2014 -- 0 0
403 Things Work Out 07/15/2014 -- 0 0
404 Leader Of The Gang 07/15/2014 -- 0 0
405 The Little Orphan 07/15/2014 -- 0 0
406 The Boy And The Flag 07/15/2014 -- 0 0
407 If You Would Please Me 07/15/2014 -- 0 0
408 Life's Slacker 07/15/2014 -- 0 0
409 The Bachelor's Soliloquy 07/15/2014 -- 0 0
410 Selfishness 07/15/2014 -- 0 0
411 Reflection 08/04/2014 -- 0 0
412 Story-Time 08/04/2014 -- 0 0
413 Reflection 08/04/2014 -- 0 0
414 The Old-Fashioned Parents 08/04/2014 -- 0 0
415 At The Millennium 08/04/2014 -- 0 0
416 The Proof Of Worth 08/14/2014 -- 0 0
417 We Need A Few More Optimists 08/14/2014 -- 0 0
418 The Alarm 08/14/2014 -- 0 0
419 A Christmas Greeting 08/14/2014 -- 0 0
420 Ideals 08/14/2014 -- 0 0
421 Compensation 08/14/2014 -- 0 0
422 My Part 08/14/2014 -- 0 0
423 The Complacent Slacker 08/14/2014 -- 0 0
424 The Temple - What Makes It Of Worth 08/14/2014 -- 0 0
425 Easy Service 08/14/2014 -- 0 0
426 Drafted 08/14/2014 -- 0 1
427 Show Me! 08/14/2014 -- 0 0
428 The Girl He Left Behind 08/14/2014 -- 0 0
429 The Wrist Watch Man 08/14/2014 -- 0 0
430 He Who Serves 08/14/2014 -- 0 0
431 Grace At Evening 08/14/2014 -- 0 0
432 For Your Boy And Mine 08/14/2014 -- 0 0
433 I See You'Ve Travelled Some 08/14/2014 -- 0 0
434 The New Year 08/14/2014 -- 0 0
435 The Friendly Greeting 08/14/2014 -- 0 0
436 Taking His Place 08/14/2014 -- 0 0
437 Follow A Famous Father 08/14/2014 -- 0 0
438 Your Country Needs You 08/14/2014 -- 0 0
439 A Patriot 08/14/2014 -- 0 0
440 Envy 08/14/2014 -- 0 0
441 The Fellowship Of Books 08/14/2014 -- 0 0
442 The Flag 08/14/2014 -- 0 1
443 A Woman's Love 08/14/2014 -- 0 0
444 A Father's Tribute 08/14/2014 -- 0 0
445 It's A Boy 08/14/2014 -- 0 0
446 A Discussion 08/14/2014 -- 0 0
447 I'D Rather Be A Failure 08/14/2014 -- 0 0
448 The Call To Service 08/14/2014 -- 0 0
449 Kelly Ingram 08/14/2014 -- 0 0
450 The Things That Make A Soldier Great 08/14/2014 -- 0 0
451 So Easy 08/14/2014 -- 0 0
452 Everywhere In America 08/14/2014 -- 0 0
453 Over Here 08/14/2014 -- 0 0
454 A Father's Wish 08/14/2014 -- 0 0
455 The Chip On Your Shoulder 08/14/2014 -- 0 0
456 People Like Him 07/14/2014 -- 0 0
457 Defeat 07/14/2014 -- 0 1
458 I 07/14/2014 -- 0 0
459 Challenge 07/14/2014 -- 0 0
460 A Prayer 07/14/2014 -- 0 0
461 An Easy World 07/14/2014 -- 0 0
462 A Vow 07/14/2014 -- 0 0
463 Things That Haven'T Been Done Before 07/14/2014 -- 0 0
464 The Finer Thought 07/14/2014 -- 0 0
465 The Unsettled Scores 08/14/2014 -- 0 0
466 Move We Adjourn 08/14/2014 -- 0 0
467 The Waiter At The Camp 08/14/2014 -- 0 0
468 His Room 08/14/2014 -- 0 0
469 America 08/14/2014 -- 0 0
470 Why We Fight 08/14/2014 -- 0 0
471 Soldierly 08/14/2014 -- 0 0
472 The Lamb Skin 08/14/2014 -- 0 0
473 The Better Job 08/14/2014 -- 0 0
474 The Change 08/14/2014 -- 0 0
475 Good Luck 08/14/2014 -- 0 0
476 The Joy To Be 08/14/2014 -- 0 0
477 Mothers And Wives 08/14/2014 -- 0 0
478 The Time For Deeds 08/14/2014 -- 0 0
479 At The Peace Table 08/14/2014 -- 0 0
480 Fine 08/14/2014 -- 0 0
481 The Happy Man 08/15/2014 -- 0 0
482 Practicing Time 08/15/2014 -- 0 0
483 Trouble Brings Friends 08/15/2014 -- 0 0
484 Carry On 08/15/2014 -- 0 0
485 He Should Meet A Mother There 08/15/2014 -- 0 0
486 Fly A Clean Flag 08/15/2014 -- 0 0
487 April Thoughts 08/15/2014 -- 0 0
488 Friendship 08/15/2014 -- 0 0
489 Contentment 08/15/2014 -- 0 0
490 Toys And Life 08/15/2014 -- 0 0
491 When Friends Drop In 08/15/2014 -- 0 0
492 July The Fourth, 1917 08/15/2014 -- 0 0
493 Follow The Flag 08/15/2014 -- 0 0
494 Do Your All 08/15/2014 -- 0 0
495 We Who Stay At Home 08/15/2014 -- 0 0
496 If You And I 08/15/2014 -- 0 0
497 A Song 08/15/2014 -- 0 0
498 When It's Bad To Forget 08/15/2014 -- 0 0
499 Why I'M Glad 08/15/2014 -- 0 0
500 Patriotism 08/15/2014 -- 0 0
501 Lost Opportunities 08/15/2014 -- 0 0
502 The Approach Of Christmas 08/15/2014 -- 0 0
503 Selling The Old Home 08/15/2014 -- 0 0
504 With Dog And Gun 08/15/2014 -- 0 0
505 Little Wrangles 08/15/2014 -- 0 0
506 The Responsibility Of Fatherhood 08/15/2014 -- 0 0
507 The Little Old-Fashioned Church 08/15/2014 -- 0 0
508 When We Were Kids 08/15/2014 -- 0 0
509 Dreaming 08/15/2014 -- 0 0
510 At The Cottage 08/15/2014 -- 0 0
511 The Sweetest Soul I Ever Knew 08/15/2014 -- 0 0
512 Some Day 08/15/2014 -- 0 0
513 Consolation 08/15/2014 -- 0 0
514 Don'T You Know 08/15/2014 -- 0 0
515 Alone 08/15/2014 -- 0 0
516 Aunty 08/15/2014 -- 0 0
517 My Soul And I 08/15/2014 -- 0 0
518 Under The Roof Where The Laughter Rings 08/15/2014 -- 0 0
519 Ambition 08/15/2014 -- 0 0
520 Contradictin' Joe 08/15/2014 -- 0 0
521 Aw Gee Whiz! 08/15/2014 -- 0 0
522 A Coming Reunion 08/14/2014 -- 0 0
523 When Mother's Sewing Buttons On 08/14/2014 -- 0 0
524 All For The Best 08/14/2014 -- 0 0
525 Joys Within Reach 08/14/2014 -- 0 0
526 Life Is What We Make It 08/14/2014 -- 0 0
527 Hope 08/14/2014 -- 0 0
528 A Woman's Ways 08/14/2014 -- 0 0
529 A Convalescin' Woman 08/14/2014 -- 0 0
530 The Book Of Memory 08/14/2014 -- 0 0
531 Afraid Of His Dad 08/14/2014 -- 0 0
532 Sympathy 08/14/2014 -- 0 0
533 Little Girls 08/14/2014 -- 0 0
534 When We'Re All Alike 08/14/2014 -- 0 0
535 To A Little Girl 08/14/2014 -- 0 0
536 The Discovery Of A Soul 08/14/2014 -- 0 0
537 Love 08/14/2014 -- 0 0
538 Couldn'T Live Without You 08/14/2014 -- 0 0
539 A Wonderful World 08/14/2014 -- 0 0
540 A Feller's Hat 08/14/2014 -- 0 0
541 The Toy-Strewn Home 08/14/2014 -- 0 0
542 To An Old Friend 08/14/2014 -- 0 0
543 I Ain'T Dead Yet 08/14/2014 -- 0 0
544 Life's Single Standard 08/14/2014 -- 0 0
545 The True Man 08/14/2014 -- 0 0
546 Our Little Needs 08/14/2014 -- 0 0
547 When We Understand The Plan 08/14/2014 -- 0 0
548 Bedtime 08/14/2014 -- 0 0
549 After All Is Said And Done 08/14/2014 -- 0 0
550 The Loss Is Not So Great 08/14/2014 -- 0 0
551 Too Big A Price 08/14/2014 -- 0 0
552 The Glory Of Age 08/14/2014 -- 0 0
553 Grandma 08/14/2014 -- 0 0
554 Since I Have Done My Best 08/14/2014 -- 0 0
555 What We Can Be 08/14/2014 -- 0 0
556 The Mother Watch 08/14/2014 -- 0 0
557 Looking Back 08/14/2014 -- 0 0
558 Today 08/14/2014 -- 0 0
559 A Good Name 08/14/2014 -- 0 0
560 The Children 08/14/2014 -- 0 0
561 Satisfied With Life 08/14/2014 -- 0 0
562 The Undaunted 08/14/2014 -- 0 0
563 Golf Pride 08/14/2014 -- 0 0
564 If Those Who Love Us 08/14/2014 -- 0 0
565 The Departed 08/14/2014 -- 0 0
566 Joy 08/14/2014 -- 0 0
567 The Three Me's 08/14/2014 -- 0 0
568 The Struggle 08/14/2014 -- 0 1
569 He Has Not Lived In Vain 08/14/2014 -- 0 0
570 A Heart To Heart Talk 08/14/2014 -- 0 0
571 Be Cheerful 08/14/2014 -- 0 0
572 Becoming A Dad 08/14/2014 -- 0 0
573 Best Way To Read A Book 08/14/2014 -- 0 0
574 Little Girls Are Best 08/14/2014 -- 0 0
575 Learn To Smile 08/14/2014 -- 0 0
576 Wait Till Your Pa Comes Home 08/14/2014 -- 0 0
577 Out Of It All 08/14/2014 -- 0 0
578 The Way To Do 08/26/2014 -- 0 0
579 Little Miss Six O'Clock 08/26/2014 -- 0 0
580 A Little The Best Of It 08/26/2014 -- 0 0
581 His Chance 08/26/2014 -- 0 0
582 Roses, Birds And Some Men 08/26/2014 -- 0 0
583 A Valentine 08/26/2014 -- 0 0
584 The Town Of Nothing-To-Do 08/26/2014 -- 0 0
585 The Rewards Of Industry 08/26/2014 -- 0 0
586 Literary Mother 08/26/2014 -- 0 0
587 Somebody Spoke A Cheering Word 08/26/2014 -- 0 0
588 The Old Days 08/26/2014 -- 0 0
589 Roses And Gasoline 08/26/2014 -- 0 0
590 A Fourth Of July Wish 08/26/2014 -- 0 0
591 The Christmas Spirit 08/26/2014 -- 0 0
592 The Change-Worker 08/26/2014 -- 0 0
593 At Dawn 08/26/2014 -- 0 0
594 The Pay Envelope 08/26/2014 -- 0 0
595 Dinner-Time 08/26/2014 -- 0 0
596 My Job 08/26/2014 -- 0 0
597 The Finest Fellowship 08/26/2014 -- 0 0
598 The Gift Of Play 08/26/2014 -- 0 0
599 The Little Woman 08/26/2014 -- 0 0
600 An Old-Fashioned Welcome 08/26/2014 -- 0 0
601 Summer Dreams 08/26/2014 -- 0 0
602 Where's Mamma? 08/26/2014 -- 0 0
603 What Home's Intended For 08/26/2014 -- 0 0
604 The Christmas Gift For Mother 08/26/2014 -- 0 0
605 Boy And His Stomach 08/26/2014 -- 0 0
606 The Simple Toilers 08/26/2014 -- 0 0
607 The Lonely Fight 08/26/2014 -- 0 0
608 Different 08/26/2014 -- 0 0
609 Ma An' Me 08/26/2014 -- 0 0
610 He Struck Me! 08/26/2014 -- 0 0
611 Fame 08/26/2014 -- 0 0
612 Tuckered Out 08/26/2014 -- 0 0
613 His Rattle He Throws On The Floor 08/26/2014 -- 0 0
614 Fixing The Shame 08/26/2014 -- 0 0
615 What Ma Said 08/26/2014 -- 0 0
616 A Scare 08/26/2014 -- 0 0
617 The Ballad Of The New Arrival 08/26/2014 -- 0 0
618 Riches 08/26/2014 -- 0 0
619 The Little Country Bus 08/26/2014 -- 0 0
620 Cornered 08/26/2014 -- 0 0
621 The Painter 08/26/2014 -- 0 0
622 Old Fashioned Remedies 08/26/2014 -- 0 0
623 Doughnuts And Cider 08/26/2014 -- 0 0
624 Sunday In The Country 08/26/2014 -- 0 1
625 The Rich Man's Woes 08/26/2014 -- 0 0
626 Winds Of The Morning 08/26/2014 -- 0 0
627 The Boy Mind 08/26/2014 -- 0 0
628 The Farmer Talks 08/26/2014 -- 0 0
629 The Summer Argument 08/26/2014 -- 0 0
630 My Plan 08/26/2014 -- 0 0
631 Out Of The Day 08/26/2014 -- 0 0
632 Nothing Unusual 08/26/2014 -- 0 0
633 The Homecomer's Song 08/26/2014 -- 0 0
634 Other's Successes 08/27/2014 -- 0 0
635 The Cost Of Praise 08/27/2014 -- 0 0
636 What To Do 08/27/2014 -- 0 0
637 The Way Of The World 08/27/2014 -- 0 0
638 The Summer Girl 08/27/2014 -- 0 0
639 After A Proposal 08/27/2014 -- 0 0
640 Songs Of Gloom 08/27/2014 -- 0 0
641 My Word! 08/27/2014 -- 0 0
642 The March O' Man 08/27/2014 -- 0 0
643 Father's Chore 08/27/2014 -- 0 0
644 Living Flowers 08/27/2014 -- 0 0
645 His Dog 08/27/2014 -- 0 0
646 Thoughts Of A Father 08/27/2014 -- 0 0
647 The Evening Prayer 08/27/2014 -- 0 0
648 The Comedian 08/27/2014 -- 0 0
649 Mother's Party Dress 08/27/2014 -- 0 0
650 The Lost Purse 08/27/2014 -- 0 0
651 Autumn Evenings 08/27/2014 -- 0 0
652 Copy Paper 08/27/2014 -- 0 0
653 The Cure 08/27/2014 -- 0 0
654 Answering The Usual Questions 08/27/2014 -- 0 0
655 Capital Punishment 08/27/2014 -- 0 0
656 The Time For Brotherhood 08/27/2014 -- 0 0
657 Tell Him Why 08/27/2014 -- 0 0
658 Jes' Wonderin'! 08/27/2014 -- 0 0
659 The Value Of A Telephone 08/27/2014 -- 0 0
660 Sacrifices 08/27/2014 -- 0 0
661 The Toiler 08/27/2014 -- 0 0
662 The Child World 08/27/2014 -- 0 0
663 The Limit 08/27/2014 -- 0 0
664 Neil Snow 08/27/2014 -- 0 0
665 The Disgrace Of Poverty 08/27/2014 -- 0 0
666 The Gentle Hand Of Women Folks 08/27/2014 -- 0 0
667 Fishing Reasons 08/27/2014 -- 0 0
668 Man And Lathe 08/27/2014 -- 0 0
669 If I Were Santa Claus 08/27/2014 -- 0 0
670 The Bank Clerk 08/27/2014 -- 0 0
671 The Killing Place 08/27/2014 -- 0 0
672 Found Out 08/27/2014 -- 0 0
673 You And Your Body 08/27/2014 -- 0 0
674 Lillian's Reading 08/27/2014 -- 0 0
675 Chums 08/27/2014 -- 0 0
676 Safe Conduct 08/27/2014 -- 0 0
677 Tinkerin' At Home 08/27/2014 -- 0 0
678 Being Dad On Christmas Eve 08/27/2014 -- 0 0
679 Our Country 08/27/2014 -- 0 0
680 Bud Discusses Cleanliness 08/27/2014 -- 0 0
681 Pleasure's Signs 08/27/2014 -- 0 0
682 St. Valentine's Day 08/27/2014 -- 0 0
683 When The Minister Calls 08/27/2014 -- 0 0
684 The Song Of The Builder 08/27/2014 -- 0 0
685 The Lucky Man 08/27/2014 -- 0 0
686 Old Mister Laughter 08/27/2014 -- 0 0
687 The Wide Outdoors 08/27/2014 -- 0 0
688 The Spoiler 08/27/2014 -- 0 0
689 George Moir Black 08/27/2014 -- 0 0
690 Real Help 08/27/2014 -- 0 0
691 Answering The Grumblers 08/27/2014 -- 0 0
692 Troubles 08/27/2014 -- 0 0
693 Strange 08/27/2014 -- 0 0
694 My Proud Pa 08/27/2014 -- 0 0
695 Welcoming The New Year 08/27/2014 -- 0 0
696 ‘erbert's H'Opinion 08/27/2014 -- 0 0
697 The Jedge Of Bowie County 08/27/2014 -- 0 0
698 Song Of The Many 08/27/2014 -- 0 0
699 Down The Lanes Of August 08/27/2014 -- 0 0
700 The Whiners 08/27/2014 -- 0 0
701 Let's Go 08/27/2014 -- 0 0
702 Food, Clothes And Drink 08/27/2014 -- 0 0
703 The Tempters 08/27/2014 -- 0 0
704 The Neighbors 08/27/2014 -- 0 0
705 Good Friday 08/27/2014 -- 0 0
706 The Choir At Pixley 08/27/2014 -- 0 0
707 Comradeship 08/27/2014 -- 0 0
708 The Bank Roll 08/27/2014 -- 0 0
709 On Station Farewells 08/27/2014 -- 0 0
710 The Dreams Of Youth 08/27/2014 -- 0 0
711 United States 08/27/2014 -- 0 0
712 Cliffs Of Scotland 08/27/2014 -- 0 0
713 If I Had Youth 08/27/2014 -- 0 0
714 We'Re Dreamers All 08/27/2014 -- 0 0
715 Pa Discusses Economy 08/27/2014 -- 0 0
716 Little Fellow 08/27/2014 -- 0 0
717 The Brave Men 08/27/2014 -- 0 0
718 Glad 08/27/2014 -- 0 0
719 King 08/27/2014 -- 0 0
720 Lines To The Wash Woman 08/27/2014 -- 0 0
721 Punishment 08/27/2014 -- 0 0
722 Hubbard And Pelletier 08/27/2014 -- 0 0
723 Fishin'-Hunger 08/27/2014 -- 0 0
724 When The Dressmaker Comes 08/27/2014 -- 0 0
725 The Bright Side 08/27/2014 -- 0 0
726 An Uncle 08/27/2014 -- 0 0
727 The Dream Days 08/27/2014 -- 0 0
728 September 08/27/2014 -- 0 1
729 The Peevish Man 08/27/2014 -- 0 0
730 When Pa Gets Back 08/27/2014 -- 0 0
731 The Card Club's First Meeting 08/27/2014 -- 0 0
732 The New Year's Caller 08/27/2014 -- 0 0
733 The After-Dinner Smoke 08/27/2014 -- 0 0
734 At The Summer Cottage 08/27/2014 -- 0 0
735 The Old-Fashioned Cooks 08/27/2014 -- 0 0
736 My Big Brother 08/27/2014 -- 0 0
737 The Right Family 08/27/2014 -- 0 0
738 Shut-Ins 08/27/2014 -- 0 0
739 The Tramp 08/27/2014 -- 0 0
740 The Father Of The Man 08/27/2014 -- 0 0
741 Snooping 'Round 08/27/2014 -- 0 0
742 Little Fishermen 08/27/2014 -- 0 0
743 An Apple Tree In France 08/27/2014 -- 0 0
744 Only A Building 08/27/2014 -- 0 0
745 Your Caddie And You 08/27/2014 -- 0 0
746 St. Louis: A Song Of The City 09/02/2014 -- 0 0
747 The Peaks Of Valor 09/02/2014 -- 0 0
748 Where Children Play 09/02/2014 -- 0 0
749 The Willing Horse 09/02/2014 -- 0 0
750 Green Apple Time 09/02/2014 -- 0 1
751 When Ma Wants Something New 09/02/2014 -- 0 0
752 Dan Mcgann Declares Himself 09/02/2014 -- 0 0
753 Dreading 09/02/2014 -- 0 0
754 Happiness 09/02/2014 -- 0 0
755 Now And Then 09/02/2014 -- 0 0
756 A Personal View Of War 09/02/2014 -- 0 0
757 The Joy Of Getting Back 09/02/2014 -- 0 0
758 Queer Ebenezer 09/02/2014 -- 0 0
759 The Lanes Of Apple Bloom 09/02/2014 -- 0 0
760 Warning The Carpenter 09/02/2014 -- 0 0
761 Little Marie 09/02/2014 -- 0 0
762 Not Crossing Bridges 09/02/2014 -- 0 0
763 Henry Ford's Offhand Way 09/02/2014 -- 0 0
764 The Worry-Chaser 09/02/2014 -- 0 0
765 Out In The Open 09/02/2014 -- 0 0
766 Pixley Folks 09/02/2014 -- 0 0
767 Contrary Sary 09/02/2014 -- 0 0
768 Out At Pelletier's 09/02/2014 -- 0 0
769 The Panama Canal 09/02/2014 -- 0 0
770 Be A Friend 12/08/2014 -- 0 0
771 Bravery 08/20/2014 -- 0 0
772 The Home-Wrecker 08/20/2014 -- 0 0
773 The Baby's Feet 08/20/2014 -- 0 0
774 A Real Thriller 08/20/2014 -- 0 0
775 History Teaches 08/20/2014 -- 0 0
776 Answering Age 08/20/2014 -- 0 0
777 Old-Fashioned Folks 08/20/2014 -- 0 0
778 The Call Of The Woods 08/14/2014 -- 0 0
779 The Joys Of Home 08/14/2014 -- 0 0
780 Autumn 08/14/2014 -- 0 0
781 Sittin' On The Porch 08/14/2014 -- 0 0
782 Kindness 08/14/2014 -- 0 0
783 The Making Of Friends 08/14/2014 -- 0 0
784 Don'T Quit 03/24/2015 -- 0 0
785 Keep Your Dreams 08/27/2015 -- 0 0
786 What Counts 08/27/2015 -- 0 0
787 Figure It Out 08/27/2015 -- 0 0
788 Give Me A Single Day 08/14/2014 -- 0 0
789 The Benefit Of Trouble 08/14/2014 -- 0 0
790 The Reason For Work 08/14/2014 -- 0 0
791 Faces 08/14/2014 -- 0 0
792 The Things You Can'T Forget 08/14/2014 -- 0 0
793 The Deeds Of Anger 08/14/2014 -- 0 0
794 From Laughter To Labor 08/14/2014 -- 0 0
795 To A Kindly Critic 08/14/2014 -- 0 0
796 The Plugger 08/14/2014 -- 0 0
797 Gossip 08/14/2014 -- 0 0
798 Don'T Worry, Little Girl 08/14/2014 -- 0 0
799 Rather Stay Home 08/14/2014 -- 0 0
800 The Contented Man 08/14/2014 -- 0 0
801 Up And Down The Lanes Of Love 08/14/2014 -- 0 0
802 Names And Faces 08/14/2014 -- 0 0
803 The Fun Of Forgiving 08/14/2014 -- 0 0
804 There Will Always Be Something To Do 08/14/2014 -- 0 0
805 The Cookie-Lady 08/14/2014 -- 0 0
806 Not A Money Debt 08/20/2014 -- 0 0
807 The Women Of The Sailors 08/20/2014 -- 0 0
808 The First Rule Of Golf 08/20/2014 -- 0 0
809 One-Sided Faith 08/20/2014 -- 0 0
810 Human Failings 08/25/2014 -- 0 0
811 He Earned His Way 08/25/2014 -- 0 0
812 The Naughty Little Fellow 08/25/2014 -- 0 0
813 The Sensible Romance Of Mildred 08/25/2014 -- 0 0
814 Worth While 08/25/2014 -- 0 0
815 A New Year's Song 08/25/2014 -- 0 0
816 A Preference 08/25/2014 -- 0 0
817 Temptation 08/25/2014 -- 0 0
818 The Right To Joy 08/25/2014 -- 0 0
819 Little Miss Laugh-A-Lot 08/25/2014 -- 0 0
820 Mary 08/25/2014 -- 0 0
821 Sticky Fingers 08/25/2014 -- 0 0
822 The Notion Of Rastus 08/25/2014 -- 0 0
823 Charms 08/25/2014 -- 0 0
824 The Joys Of Earth 08/25/2014 -- 0 0
825 True Philosophy 08/25/2014 -- 0 0
826 The Fight With Self 08/25/2014 -- 0 0
827 The Influence Of Woman 08/25/2014 -- 0 0
828 Magazine Girl 08/25/2014 -- 0 0
829 The Way To Make Friends 08/25/2014 -- 0 0
830 Buckle In 08/25/2014 -- 0 0
831 His First Long Trousers 08/25/2014 -- 0 0
832 The Don'T Believers 08/25/2014 -- 0 0
833 The Limitations Of Greatness 08/25/2014 -- 0 0
834 Reunited 08/25/2014 -- 0 0
835 For Others—and His Wife 08/25/2014 -- 0 1
836 The Glories Of The Present 08/25/2014 -- 0 0
837 The Spendthrift 08/25/2014 -- 0 0
838 Gardening 08/25/2014 -- 0 0
839 Tommy Atkins' Way 08/25/2014 -- 0 0
840 The Doubtful To-Morrow 08/25/2014 -- 0 0
841 Tonsils 08/25/2014 -- 0 0
842 The Old Wooden Tub 08/25/2014 -- 0 0
843 Tied Down 08/25/2014 -- 0 0
844 First Name Friends 08/25/2014 -- 0 0
845 Mrs. Malone And The Censor 08/25/2014 -- 0 0
846 Dr. Johnson's Picture Cow 08/25/2014 -- 0 0
847 She Mothered Five 08/25/2014 -- 0 0
848 The Cure For Weariness 08/25/2014 -- 0 0
849 A Vanished Joy 08/25/2014 -- 0 0
850 The Gold Givers 08/25/2014 -- 0 0
851 The Little Chap 08/25/2014 -- 0 0
852 The Thumbed Collar 08/25/2014 -- 0 0
853 Arcady 08/25/2014 -- 0 0
854 Play The Man 08/25/2014 -- 0 0
855 Wisdom's Haunts 08/25/2014 -- 0 0
856 A Good World 08/25/2014 -- 0 0
857 The Vote Of Thanks 08/25/2014 -- 0 0
858 Christmas Greeting 08/25/2014 -- 0 0
859 Mother Of Five 08/25/2014 -- 0 0
860 Slumberland Time 08/25/2014 -- 0 0
861 Trouble 08/25/2014 -- 0 0
862 What A Sick Woman Does 08/25/2014 -- 0 0
863 The Family Party 08/26/2014 -- 0 0
864 The Lanes Of Boyhood 08/26/2014 -- 0 0
865 His Philosophy 08/26/2014 -- 0 0
866 Beautifying The Flag 08/15/2014 -- 0 0
867 The Birth Of Love 08/15/2014 -- 0 0
868 At The Wedding 08/15/2014 -- 0 0
869 Real Lessons 08/20/2014 -- 0 0
870 Memories Of Tomorrow 08/20/2014 -- 0 0
871 Lonely 08/20/2014 -- 0 0
872 The Man Who's Down 08/20/2014 -- 0 0
873 The Green Of Michigan 08/20/2014 -- 0 0
874 They Don'T 08/20/2014 -- 0 0
875 Easter 08/20/2014 -- 0 0
876 To The Failures 08/20/2014 -- 0 0
877 The Lilacs 08/20/2014 -- 0 0
878 A Query — 08/20/2014 -- 0 0
879 Christmas Eve 08/20/2014 -- 0 0
880 The Song Of Loved Ones 08/20/2014 -- 0 0
881 The Burden Bearer 08/20/2014 -- 0 0
882 Spoiling Them 08/20/2014 -- 0 0
883 Loser And Victor 08/20/2014 -- 0 0
884 Ma And The Ouija Board 08/20/2014 -- 0 0
885 To The Men At Home 08/20/2014 -- 0 0
886 Here We Are! 08/20/2014 -- 0 0
887 A Lullaby 08/20/2014 -- 0 0
888 A Pat On The Back 08/20/2014 -- 0 0
889 Neglected 08/20/2014 -- 0 0
890 Mothers' Splendid Dreams 08/20/2014 -- 0 0
891 A Suggestion 08/20/2014 -- 0 0
892 When There's Health In The House 08/20/2014 -- 0 0
893 Keep To The Right 08/20/2014 -- 0 0
894 An Ode To Nellie 08/20/2014 -- 0 0
895 Think Happy Thoughts 08/20/2014 -- 0 0
896 A Successful Dad 08/20/2014 -- 0 0
897 A Year's New Wish 08/20/2014 -- 0 0
898 Endurance 08/20/2014 -- 0 0
899 His Example 08/20/2014 -- 0 0
900 To The Boy 08/20/2014 -- 0 0
901 What Father Knows 08/20/2014 -- 0 0
902 Mother's Job 08/20/2014 -- 0 0
903 She Powders Her Nose 08/20/2014 -- 0 0
904 Old Years And New 08/20/2014 -- 0 0
905 Safe At Home 08/20/2014 -- 0 0
906 The Honor Roll 08/20/2014 -- 0 0
907 Next Of Kin 08/20/2014 -- 0 0
908 The Christmas Box 08/20/2014 -- 0 0
909 The Boy's Adventure 08/20/2014 -- 0 0
910 Bigger Than His Dad 08/20/2014 -- 0 0
911 The Sympathetic Minister 08/20/2014 -- 0 0
912 The Shattered Dream 08/20/2014 -- 0 0
913 Trustful Ma 08/20/2014 -- 0 0
914 The Fight Worth While 08/20/2014 -- 0 0
915 The Songs Of Night 08/20/2014 -- 0 0
916 Unphilosophic 08/20/2014 -- 0 0
917 Mark Twain 08/20/2014 -- 0 0
918 Back To School 08/20/2014 -- 0 0
919 Independence Day 08/20/2014 -- 0 0
920 The Man I'M For 08/20/2014 -- 0 0
921 When Mother Made An Angel Cake 08/20/2014 -- 0 0
922 The Furnace Door 08/20/2014 -- 0 0
923 No Use Sighin' 08/20/2014 -- 0 0
924 When We Play The Fool 08/20/2014 -- 0 0
925 Just A Boy 08/20/2014 -- 0 0
926 Cleaning The Furnace 08/20/2014 -- 0 0
927 Pa And The Monthly Bills 08/20/2014 -- 0 0
928 His Santa Claus 08/20/2014 -- 0 0
929 War's Homecoming 08/20/2014 -- 0 0
930 For The Living 08/20/2014 -- 0 1
931 I'Ll Never Be Rich 08/20/2014 -- 0 0
932 The Monument Of Kindness 08/20/2014 -- 0 0
933 The Road Builder 08/20/2014 -- 0 0
934 The Man I Like 08/20/2014 -- 0 0
935 The Man Of His Word 08/20/2014 -- 0 0
936 Can'T Frighten Them 08/20/2014 -- 0 0
937 Life And Hereafter 08/20/2014 -- 0 0
938 A Place At The Top 08/20/2014 -- 0 0
939 Business 08/20/2014 -- 0 0
940 Under A Tree 08/20/2014 -- 0 0
941 Man's Experience 08/20/2014 -- 0 0
942 A Lesson From Golf 08/20/2014 -- 0 0
943 Pleasing Dad 08/20/2014 -- 0 0
944 When An Old Man Gets To Thinking 08/20/2014 -- 0 0
945 The Test 08/20/2014 -- 0 0
946 When My Ship Comes In 08/20/2014 -- 0 0
947 Along The Paths O' Glory 08/20/2014 -- 0 0
948 The Doctor 08/20/2014 -- 0 0
949 What Makes An Artist 08/20/2014 -- 0 0
950 The World And Bud 08/20/2014 -- 0 0
951 Pretending Not To See 08/20/2014 -- 0 0
952 The Age Of Ink 08/20/2014 -- 0 0
953 United 08/20/2014 -- 0 0
954 The Better Thing 08/20/2014 -- 0 0
955 A Greeting 08/20/2014 -- 0 0
956 Living Monuments 08/20/2014 -- 0 0
957 Off To School 08/20/2014 -- 0 0
958 The Path O' Little Children 08/20/2014 -- 0 0
959 The Graduation Dress 08/20/2014 -- 0 0
960 Mother Nature 08/20/2014 -- 0 0
961 They'Re Coming Back 08/20/2014 -- 0 0
962 Two Viewpoints 08/20/2014 -- 0 0
963 Jimmy 08/20/2014 -- 0 0
964 Getting Her A Valentine 08/20/2014 -- 0 0
965 The Homes Of Joy 08/20/2014 -- 0 0
966 The Average Man 08/20/2014 -- 0 0
967 The Kindergarten Miss 08/20/2014 -- 0 0
968 Similar 08/20/2014 -- 0 0
969 True 08/20/2014 -- 0 0
970 Lullaby 08/20/2014 -- 0 0
971 The Cut-Down Trousers 08/20/2014 -- 0 0
972 Bread And Jam 08/20/2014 -- 0 0
973 The Bride 08/20/2014 -- 0 0
974 The Simple Things 08/20/2014 -- 0 0
975 Golf Luck 08/20/2014 -- 0 0
976 Committee Meetings 08/20/2014 -- 0 0
977 Nothing To Laugh At 08/20/2014 -- 0 0
978 Brothers All 08/20/2014 -- 0 1
979 Bob White 08/20/2014 -- 0 0
980 To A Lady Knitting 08/20/2014 -- 0 0
981 Thoughts Of A Soldier 08/20/2014 -- 0 0
982 General Pershing 08/20/2014 -- 0 0
[Hata Bildir]